sensor_id;sensor_type;location;lat;lon;timestamp;pressure;altitude;pressure_sealevel;temperature;humidity
47897;BME280;39629;51.400;5.494;2023-05-10T00:03:42;100690.81;;;12.20;100.00
47897;BME280;39629;51.400;5.494;2023-05-10T00:08:44;100686.47;;;12.16;100.00
47897;BME280;39629;51.400;5.494;2023-05-10T00:13:48;100687.38;;;12.14;100.00
47897;BME280;39629;51.400;5.494;2023-05-10T00:18:49;100686.50;;;12.12;100.00
47897;BME280;39629;51.400;5.494;2023-05-10T00:23:51;100678.56;;;12.16;100.00
47897;BME280;39629;51.400;5.494;2023-05-10T00:28:54;100683.03;;;12.09;100.00
47897;BME280;39629;51.400;5.494;2023-05-10T00:33:55;100685.63;;;12.11;100.00
47897;BME280;39629;51.400;5.494;2023-05-10T00:38:58;100684.72;;;12.14;100.00
47897;BME280;39629;51.400;5.494;2023-05-10T00:44:01;100681.19;;;12.13;100.00
47897;BME280;39629;51.400;5.494;2023-05-10T00:49:03;100675.97;;;12.10;100.00
47897;BME280;39629;51.400;5.494;2023-05-10T00:54:05;100675.97;;;12.10;100.00
47897;BME280;39629;51.400;5.494;2023-05-10T00:59:09;100682.13;;;12.12;100.00
47897;BME280;39629;51.400;5.494;2023-05-10T01:04:11;100675.03;;;12.16;100.00
47897;BME280;39629;51.400;5.494;2023-05-10T01:09:13;100681.16;;;12.19;100.00
47897;BME280;39629;51.400;5.494;2023-05-10T01:14:18;100674.09;;;12.20;100.00
47897;BME280;39629;51.400;5.494;2023-05-10T01:19:22;100676.69;;;12.23;100.00
47897;BME280;39629;51.400;5.494;2023-05-10T01:24:52;100671.47;;;12.18;100.00
47897;BME280;39629;51.400;5.494;2023-05-10T01:30:10;100666.19;;;12.18;100.00
47897;BME280;39629;51.400;5.494;2023-05-10T01:35:24;100665.38;;;12.15;100.00
47897;BME280;39629;51.400;5.494;2023-05-10T01:40:32;100667.09;;;12.17;100.00
47897;BME280;39629;51.400;5.494;2023-05-10T01:45:39;100677.66;;;12.16;100.00
47897;BME280;39629;51.400;5.494;2023-05-10T01:50:46;100672.38;;;12.16;100.00
47897;BME280;39629;51.400;5.494;2023-05-10T01:55:52;100669.84;;;12.08;100.00
47897;BME280;39629;51.400;5.494;2023-05-10T02:00:55;100677.03;;;11.97;100.00
47897;BME280;39629;51.400;5.494;2023-05-10T02:06:01;100675.34;;;11.86;100.00
47897;BME280;39629;51.400;5.494;2023-05-10T02:11:04;100679.84;;;11.76;100.00
47897;BME280;39629;51.400;5.494;2023-05-10T02:16:07;100684.22;;;11.79;100.00
47897;BME280;39629;51.400;5.494;2023-05-10T02:21:10;100690.38;;;11.78;100.00
47897;BME280;39629;51.400;5.494;2023-05-10T02:26:15;100696.44;;;11.86;100.00
47897;BME280;39629;51.400;5.494;2023-05-10T02:31:18;100704.31;;;11.89;100.00
47897;BME280;39629;51.400;5.494;2023-05-10T02:36:22;100706.06;;;11.90;100.00
47897;BME280;39629;51.400;5.494;2023-05-10T02:41:25;100714.00;;;11.90;100.00
47897;BME280;39629;51.400;5.494;2023-05-10T02:46:27;100712.22;;;11.92;100.00
47897;BME280;39629;51.400;5.494;2023-05-10T02:51:32;100706.94;;;11.91;100.00
47897;BME280;39629;51.400;5.494;2023-05-10T02:56:40;100712.22;;;11.92;100.00
47897;BME280;39629;51.400;5.494;2023-05-10T03:01:43;100713.19;;;11.82;100.00
47897;BME280;39629;51.400;5.494;2023-05-10T03:06:46;100708.84;;;11.78;100.00
47897;BME280;39629;51.400;5.494;2023-05-10T03:11:55;100704.44;;;11.80;100.00
47897;BME280;39629;51.400;5.494;2023-05-10T03:17:01;100712.34;;;11.82;100.00
47897;BME280;39629;51.400;5.494;2023-05-10T03:22:10;100714.13;;;11.76;100.00
47897;BME280;39629;51.400;5.494;2023-05-10T03:27:14;100714.13;;;11.76;100.00
47897;BME280;39629;51.400;5.494;2023-05-10T03:32:16;100714.09;;;11.80;100.00
47897;BME280;39629;51.400;5.494;2023-05-10T03:37:19;100725.50;;;11.83;100.00
47897;BME280;39629;51.400;5.494;2023-05-10T03:42:21;100726.34;;;11.85;100.00
47897;BME280;39629;51.400;5.494;2023-05-10T03:47:23;100735.16;;;11.84;100.00
47897;BME280;39629;51.400;5.494;2023-05-10T03:52:26;100733.38;;;11.86;100.00
47897;BME280;39629;51.400;5.494;2023-05-10T03:57:27;100730.72;;;11.88;100.00
47897;BME280;39629;51.400;5.494;2023-05-10T04:02:29;100730.72;;;11.86;100.00
47897;BME280;39629;51.400;5.494;2023-05-10T04:07:32;100741.25;;;11.88;100.00
47897;BME280;39629;51.400;5.494;2023-05-10T04:12:34;100738.63;;;11.86;100.00
47897;BME280;39629;51.400;5.494;2023-05-10T04:17:36;100742.19;;;11.84;100.00
47897;BME280;39629;51.400;5.494;2023-05-10T04:22:39;100738.59;;;11.89;100.00
47897;BME280;39629;51.400;5.494;2023-05-10T04:27:41;100740.41;;;11.86;100.00
47897;BME280;39629;51.400;5.494;2023-05-10T04:32:42;100740.44;;;11.84;100.00
47897;BME280;39629;51.400;5.494;2023-05-10T04:37:45;100743.94;;;11.83;100.00
47897;BME280;39629;51.400;5.494;2023-05-10T04:42:46;100744.78;;;11.85;100.00
47897;BME280;39629;51.400;5.494;2023-05-10T04:47:48;100748.31;;;11.87;100.00
47897;BME280;39629;51.400;5.494;2023-05-10T04:52:51;100750.94;;;11.89;100.00
47897;BME280;39629;51.400;5.494;2023-05-10T04:57:52;100750.94;;;11.87;100.00
47897;BME280;39629;51.400;5.494;2023-05-10T05:02:55;100757.97;;;11.85;100.00
47897;BME280;39629;51.400;5.494;2023-05-10T05:07:58;100757.13;;;11.85;100.00
47897;BME280;39629;51.400;5.494;2023-05-10T05:13:00;100757.94;;;11.91;100.00
47897;BME280;39629;51.400;5.494;2023-05-10T05:18:01;100759.59;;;12.02;100.00
47897;BME280;39629;51.400;5.494;2023-05-10T05:23:04;100763.81;;;12.18;100.00
47897;BME280;39629;51.400;5.494;2023-05-10T05:28:06;100773.69;;;12.01;100.00
47897;BME280;39629;51.400;5.494;2023-05-10T05:33:07;100771.94;;;12.00;100.00
47897;BME280;39629;51.400;5.494;2023-05-10T05:38:10;100775.28;;;12.14;100.00
47897;BME280;39629;51.400;5.494;2023-05-10T05:43:12;100780.53;;;12.16;100.00
47897;BME280;39629;51.400;5.494;2023-05-10T05:48:14;100785.66;;;12.31;100.00
47897;BME280;39629;51.400;5.494;2023-05-10T05:53:17;100791.88;;;12.25;100.00
47897;BME280;39629;51.400;5.494;2023-05-10T05:58:18;100794.66;;;12.15;100.00
47897;BME280;39629;51.400;5.494;2023-05-10T06:03:20;100799.06;;;12.11;100.00
47897;BME280;39629;51.400;5.494;2023-05-10T06:08:23;100806.91;;;12.17;100.00
47897;BME280;39629;51.400;5.494;2023-05-10T06:13:24;100813.91;;;12.24;100.00
47897;BME280;39629;51.400;5.494;2023-05-10T06:18:29;100816.44;;;12.31;100.00
47897;BME280;39629;51.400;5.494;2023-05-10T06:23:31;100814.75;;;12.25;100.00
47897;BME280;39629;51.400;5.494;2023-05-10T06:28:33;100820.97;;;12.19;100.00
47897;BME280;39629;51.400;5.494;2023-05-10T06:33:35;100827.09;;;12.21;100.00
47897;BME280;39629;51.400;5.494;2023-05-10T06:38:37;100822.63;;;12.30;100.00
47897;BME280;39629;51.400;5.494;2023-05-10T06:43:39;100836.44;;;12.58;100.00
47897;BME280;39629;51.400;5.494;2023-05-10T06:48:41;100840.75;;;12.65;100.00
47897;BME280;39629;51.400;5.494;2023-05-10T06:53:44;100842.47;;;12.69;100.00
47897;BME280;39629;51.400;5.494;2023-05-10T06:58:46;100838.72;;;12.87;100.00
47897;BME280;39629;51.400;5.494;2023-05-10T07:03:47;100837.28;;;13.32;100.00
47897;BME280;39629;51.400;5.494;2023-05-10T07:08:50;100835.78;;;13.09;100.00
47897;BME280;39629;51.400;5.494;2023-05-10T07:13:52;100838.44;;;13.09;100.00
47897;BME280;39629;51.400;5.494;2023-05-10T07:18:53;100851.59;;;13.15;100.00
47897;BME280;39629;51.400;5.494;2023-05-10T07:23:56;100866.53;;;13.18;100.00
47897;BME280;39629;51.400;5.494;2023-05-10T07:28:58;100871.16;;;12.99;100.00
47897;BME280;39629;51.400;5.494;2023-05-10T07:34:00;100862.25;;;13.07;100.00
47897;BME280;39629;51.400;5.494;2023-05-10T07:39:02;100868.28;;;13.17;100.00
47897;BME280;39629;51.400;5.494;2023-05-10T07:44:04;100866.47;;;13.21;100.00
47897;BME280;39629;51.400;5.494;2023-05-10T07:49:06;100885.25;;;12.98;100.00
47897;BME280;39629;51.400;5.494;2023-05-10T07:54:09;100887.56;;;13.24;100.00
47897;BME280;39629;51.400;5.494;2023-05-10T07:59:14;100888.69;;;13.06;100.00
47897;BME280;39629;51.400;5.494;2023-05-10T08:04:16;100901.34;;;12.79;100.00
47897;BME280;39629;51.400;5.494;2023-05-10T08:09:19;100911.75;;;12.91;100.00
47897;BME280;39629;51.400;5.494;2023-05-10T08:14:23;100920.50;;;12.97;100.00
47897;BME280;39629;51.400;5.494;2023-05-10T08:19:25;100918.75;;;12.95;100.00
47897;BME280;39629;51.400;5.494;2023-05-10T08:24:28;100926.72;;;12.92;100.00
47897;BME280;39629;51.400;5.494;2023-05-10T08:29:29;100935.44;;;13.01;100.00
47897;BME280;39629;51.400;5.494;2023-05-10T08:34:31;100931.09;;;12.97;100.00
47897;BME280;39629;51.400;5.494;2023-05-10T08:39:35;100933.66;;;13.01;100.00
47897;BME280;39629;51.400;5.494;2023-05-10T08:44:36;100935.78;;;13.43;100.00
47897;BME280;39629;51.400;5.494;2023-05-10T08:49:38;100929.75;;;13.99;100.00
47897;BME280;39629;51.400;5.494;2023-05-10T08:54:42;100937.06;;;13.78;100.00
47897;BME280;39629;51.400;5.494;2023-05-10T08:59:44;100949.63;;;13.63;100.00
47897;BME280;39629;51.400;5.494;2023-05-10T09:04:46;100943.25;;;13.75;100.00
47897;BME280;39629;51.400;5.494;2023-05-10T09:09:50;100950.28;;;13.78;100.00
47897;BME280;39629;51.400;5.494;2023-05-10T09:14:53;100958.22;;;13.78;100.00
47897;BME280;39629;51.400;5.494;2023-05-10T09:19:57;100947.81;;;13.66;100.00
47897;BME280;39629;51.400;5.494;2023-05-10T09:25:09;100951.66;;;14.07;100.00
47897;BME280;39629;51.400;5.494;2023-05-10T09:30:15;100959.09;;;14.38;100.00
47897;BME280;39629;51.400;5.494;2023-05-10T09:35:19;100955.75;;;14.26;100.00
47897;BME280;39629;51.400;5.494;2023-05-10T09:40:23;100965.22;;;13.82;100.00
47897;BME280;39629;51.400;5.494;2023-05-10T09:45:26;100966.81;;;13.97;100.00
47897;BME280;39629;51.400;5.494;2023-05-10T09:50:28;100971.56;;;14.33;100.00
47897;BME280;39629;51.400;5.494;2023-05-10T09:55:40;100972.03;;;14.55;100.00
47897;BME280;39629;51.400;5.494;2023-05-10T10:00:44;100965.69;;;14.67;100.00
47897;BME280;39629;51.400;5.494;2023-05-10T10:05:48;100960.78;;;14.92;100.00
47897;BME280;39629;51.400;5.494;2023-05-10T10:10:51;100963.75;;;15.23;100.00
47897;BME280;39629;51.400;5.494;2023-05-10T10:15:54;100955.03;;;15.60;100.00
47897;BME280;39629;51.400;5.494;2023-05-10T10:20:56;100961.50;;;15.88;100.00
47897;BME280;39629;51.400;5.494;2023-05-10T10:25:59;100956.97;;;16.30;100.00
47897;BME280;39629;51.400;5.494;2023-05-10T10:31:13;100959.94;;;16.16;100.00
47897;BME280;39629;51.400;5.494;2023-05-10T10:36:18;100957.06;;;16.26;100.00
47897;BME280;39629;51.400;5.494;2023-05-10T10:41:32;100960.44;;;15.95;100.00
47897;BME280;39629;51.400;5.494;2023-05-10T10:46:34;100952.94;;;16.12;100.00
47897;BME280;39629;51.400;5.494;2023-05-10T10:51:36;100961.31;;;15.95;100.00
47897;BME280;39629;51.400;5.494;2023-05-10T10:56:39;100967.91;;;15.77;100.00
47897;BME280;39629;51.400;5.494;2023-05-10T11:01:41;100971.94;;;15.95;100.00
47897;BME280;39629;51.400;5.494;2023-05-10T11:06:44;100966.47;;;16.01;100.00
47897;BME280;39629;51.400;5.494;2023-05-10T11:11:52;100968.97;;;15.68;100.00
47897;BME280;39629;51.400;5.494;2023-05-10T11:16:55;100966.56;;;15.98;100.00
47897;BME280;39629;51.400;5.494;2023-05-10T11:22:12;100971.16;;;16.29;100.00
47897;BME280;39629;51.400;5.494;2023-05-10T11:27:15;100969.94;;;16.43;100.00
47897;BME280;39629;51.400;5.494;2023-05-10T11:32:17;100973.47;;;17.11;100.00
47897;BME280;39629;51.400;5.494;2023-05-10T11:37:20;100980.34;;;17.18;100.00
47897;BME280;39629;51.400;5.494;2023-05-10T11:42:23;100965.75;;;17.33;100.00
47897;BME280;39629;51.400;5.494;2023-05-10T11:47:25;100974.63;;;17.65;100.00
47897;BME280;39629;51.400;5.494;2023-05-10T11:52:26;100978.41;;;17.25;100.00
47897;BME280;39629;51.400;5.494;2023-05-10T11:57:30;100976.47;;;17.61;100.00
47897;BME280;39629;51.400;5.494;2023-05-10T12:02:32;100976.66;;;17.85;100.00
47897;BME280;39629;51.400;5.494;2023-05-10T12:07:34;100970.75;;;18.03;100.00
47897;BME280;39629;51.400;5.494;2023-05-10T12:12:40;100980.16;;;17.87;100.00
47897;BME280;39629;51.400;5.494;2023-05-10T12:17:43;100985.41;;;18.17;100.00
47897;BME280;39629;51.400;5.494;2023-05-10T12:22:47;100986.00;;;17.98;100.00
47897;BME280;39629;51.400;5.494;2023-05-10T12:27:53;100988.47;;;17.76;100.00
47897;BME280;39629;51.400;5.494;2023-05-10T12:32:59;100997.81;;;17.28;100.00
47897;BME280;39629;51.400;5.494;2023-05-10T12:38:28;101004.97;;;17.26;100.00
47897;BME280;39629;51.400;5.494;2023-05-10T12:43:33;101009.03;;;17.07;100.00
47897;BME280;39629;51.400;5.494;2023-05-10T12:48:36;101000.31;;;17.01;100.00
47897;BME280;39629;51.400;5.494;2023-05-10T12:53:38;101006.09;;;17.17;100.00
47897;BME280;39629;51.400;5.494;2023-05-10T12:58:41;101008.38;;;16.64;100.00
47897;BME280;39629;51.400;5.494;2023-05-10T13:03:48;101004.41;;;16.46;100.00
47897;BME280;39629;51.400;5.494;2023-05-10T13:08:49;101004.53;;;16.02;100.00
47897;BME280;39629;51.400;5.494;2023-05-10T13:13:53;101015.22;;;15.97;100.00
47897;BME280;39629;51.400;5.494;2023-05-10T13:18:54;101024.63;;;15.73;100.00
47897;BME280;39629;51.400;5.494;2023-05-10T13:23:56;101027.81;;;15.47;100.00
47897;BME280;39629;51.400;5.494;2023-05-10T13:28:59;101035.28;;;15.26;100.00
47897;BME280;39629;51.400;5.494;2023-05-10T13:34:01;101032.25;;;14.98;100.00
47897;BME280;39629;51.400;5.494;2023-05-10T13:39:03;101035.53;;;14.61;100.00
47897;BME280;39629;51.400;5.494;2023-05-10T13:44:06;101032.97;;;14.53;100.00
47897;BME280;39629;51.400;5.494;2023-05-10T13:49:08;101048.25;;;14.37;100.00
47897;BME280;39629;51.400;5.494;2023-05-10T13:54:10;101054.22;;;13.89;100.00
47897;BME280;39629;51.400;5.494;2023-05-10T13:59:14;101047.34;;;13.74;100.00
47897;BME280;39629;51.400;5.494;2023-05-10T14:04:15;101053.38;;;13.87;100.00
47897;BME280;39629;51.400;5.494;2023-05-10T14:09:17;101051.59;;;13.88;100.00
47897;BME280;39629;51.400;5.494;2023-05-10T14:14:20;101052.63;;;13.74;100.00
47897;BME280;39629;51.400;5.494;2023-05-10T14:19:21;101047.97;;;13.93;100.00
47897;BME280;39629;51.400;5.494;2023-05-10T14:24:23;101059.03;;;13.53;100.00
47897;BME280;39629;51.400;5.494;2023-05-10T14:29:26;101050.28;;;13.48;100.00
47897;BME280;39629;51.400;5.494;2023-05-10T14:34:27;101051.88;;;13.61;100.00
47897;BME280;39629;51.400;5.494;2023-05-10T14:39:29;101051.19;;;13.45;100.00
47897;BME280;39629;51.400;5.494;2023-05-10T14:44:32;101051.78;;;13.71;100.00
47897;BME280;39629;51.400;5.494;2023-05-10T14:49:33;101047.44;;;13.65;100.00
47897;BME280;39629;51.400;5.494;2023-05-10T14:54:35;101053.03;;;13.39;100.00
47897;BME280;39629;51.400;5.494;2023-05-10T14:59:38;101045.63;;;13.67;100.00
47897;BME280;39629;51.400;5.494;2023-05-10T15:04:39;101065.16;;;13.58;100.00
47897;BME280;39629;51.400;5.494;2023-05-10T15:09:41;101061.63;;;13.59;100.00
47897;BME280;39629;51.400;5.494;2023-05-10T15:14:44;101070.44;;;13.58;100.00
47897;BME280;39629;51.400;5.494;2023-05-10T15:19:45;101063.34;;;13.62;100.00
47897;BME280;39629;51.400;5.494;2023-05-10T15:24:47;101067.91;;;13.48;100.00
47897;BME280;39629;51.400;5.494;2023-05-10T15:29:50;101073.31;;;13.37;100.00
47897;BME280;39629;51.400;5.494;2023-05-10T15:34:51;101086.44;;;13.46;100.00
47897;BME280;39629;51.400;5.494;2023-05-10T15:39:53;101091.00;;;13.32;100.00
47897;BME280;39629;51.400;5.494;2023-05-10T15:44:56;101089.28;;;13.27;100.00
47897;BME280;39629;51.400;5.494;2023-05-10T15:49:57;101085.00;;;13.12;100.00
47897;BME280;39629;51.400;5.494;2023-05-10T15:54:59;101087.63;;;13.14;100.00
47897;BME280;39629;51.400;5.494;2023-05-10T16:00:02;101087.78;;;12.99;100.00
47897;BME280;39629;51.400;5.494;2023-05-10T16:05:12;101101.06;;;12.92;100.00
47897;BME280;39629;51.400;5.494;2023-05-10T16:10:14;101115.28;;;12.74;100.00
47897;BME280;39629;51.400;5.494;2023-05-10T16:15:17;101113.56;;;12.70;100.00
47897;BME280;39629;51.400;5.494;2023-05-10T16:20:19;101114.44;;;12.69;100.00
47897;BME280;39629;51.400;5.494;2023-05-10T16:25:21;101113.56;;;12.70;100.00
47897;BME280;39629;51.400;5.494;2023-05-10T16:30:24;101118.75;;;12.78;100.00
47897;BME280;39629;51.400;5.494;2023-05-10T16:35:26;101125.88;;;12.67;100.00
47897;BME280;39629;51.400;5.494;2023-05-10T16:40:29;101125.84;;;12.71;100.00
47897;BME280;39629;51.400;5.494;2023-05-10T16:45:32;101116.16;;;12.75;100.00
47897;BME280;39629;51.400;5.494;2023-05-10T16:50:33;101127.50;;;12.86;100.00
47897;BME280;39629;51.400;5.494;2023-05-10T16:55:35;101132.66;;;13.03;100.00
47897;BME280;39629;51.400;5.494;2023-05-10T17:00:38;101138.91;;;12.93;100.00
47897;BME280;39629;51.400;5.494;2023-05-10T17:05:40;101139.72;;;13.03;100.00
47897;BME280;39629;51.400;5.494;2023-05-10T17:10:42;101143.19;;;13.08;100.00
47897;BME280;39629;51.400;5.494;2023-05-10T17:15:45;101149.47;;;12.94;100.00
47897;BME280;39629;51.400;5.494;2023-05-10T17:20:47;101151.25;;;12.89;100.00
47897;BME280;39629;51.400;5.494;2023-05-10T17:25:49;101156.59;;;12.83;100.00
47897;BME280;39629;51.400;5.494;2023-05-10T17:30:55;101155.78;;;12.73;100.00
47897;BME280;39629;51.400;5.494;2023-05-10T17:35:57;101153.16;;;12.72;100.00
47897;BME280;39629;51.400;5.494;2023-05-10T17:40:59;101157.59;;;12.64;100.00
47897;BME280;39629;51.400;5.494;2023-05-10T17:46:02;101158.47;;;12.66;100.00
47897;BME280;39629;51.400;5.494;2023-05-10T17:51:03;101162.06;;;12.52;100.00
47897;BME280;39629;51.400;5.494;2023-05-10T17:56:06;101165.63;;;12.48;100.00
47897;BME280;39629;51.400;5.494;2023-05-10T18:01:09;101163.84;;;12.41;100.00
47897;BME280;39629;51.400;5.494;2023-05-10T18:06:10;101174.44;;;12.44;100.00
47897;BME280;39629;51.400;5.494;2023-05-10T18:11:12;101184.06;;;12.42;100.00
47897;BME280;39629;51.400;5.494;2023-05-10T18:16:15;101190.28;;;12.32;100.00
47897;BME280;39629;51.400;5.494;2023-05-10T18:21:17;101179.75;;;12.32;100.00
47897;BME280;39629;51.400;5.494;2023-05-10T18:26:18;101184.19;;;12.23;100.00
47897;BME280;39629;51.400;5.494;2023-05-10T18:31:21;101175.41;;;12.17;100.00
47897;BME280;39629;51.400;5.494;2023-05-10T18:36:23;101182.47;;;12.08;100.00
47897;BME280;39629;51.400;5.494;2023-05-10T18:41:24;101182.50;;;12.02;100.00
47897;BME280;39629;51.400;5.494;2023-05-10T18:46:28;101185.16;;;11.95;100.00
47897;BME280;39629;51.400;5.494;2023-05-10T18:51:30;101191.31;;;11.89;100.00
47897;BME280;39629;51.400;5.494;2023-05-10T18:56:31;101201.00;;;11.91;100.00
47897;BME280;39629;51.400;5.494;2023-05-10T19:01:34;101199.22;;;11.90;100.00
47897;BME280;39629;51.400;5.494;2023-05-10T19:06:36;101190.44;;;11.85;100.00
47897;BME280;39629;51.400;5.494;2023-05-10T19:11:37;101188.72;;;11.75;100.00
47897;BME280;39629;51.400;5.494;2023-05-10T19:16:40;101192.25;;;11.71;100.00
47897;BME280;39629;51.400;5.494;2023-05-10T19:21:42;101203.66;;;11.76;100.00
47897;BME280;39629;51.400;5.494;2023-05-10T19:26:43;101199.25;;;11.78;100.00
47897;BME280;39629;51.400;5.494;2023-05-10T19:31:46;101200.16;;;11.69;100.00
47897;BME280;39629;51.400;5.494;2023-05-10T19:36:48;101199.28;;;11.63;100.00
47897;BME280;39629;51.400;5.494;2023-05-10T19:41:50;101197.53;;;11.58;100.00
47897;BME280;39629;51.400;5.494;2023-05-10T19:46:53;101205.44;;;11.68;100.00
47897;BME280;39629;51.400;5.494;2023-05-10T19:51:54;101207.19;;;11.61;100.00
47897;BME280;39629;51.400;5.494;2023-05-10T19:56:56;101217.75;;;11.58;100.00
47897;BME280;39629;51.400;5.494;2023-05-10T20:01:59;101218.63;;;11.55;100.00
47897;BME280;39629;51.400;5.494;2023-05-10T20:07:00;101230.03;;;11.57;100.00
47897;BME280;39629;51.400;5.494;2023-05-10T20:12:02;101219.50;;;11.53;100.00
47897;BME280;39629;51.400;5.494;2023-05-10T20:17:05;101219.50;;;11.56;100.00
47897;BME280;39629;51.400;5.494;2023-05-10T20:22:07;101228.28;;;11.50;100.00
47897;BME280;39629;51.400;5.494;2023-05-10T20:27:09;101222.16;;;11.47;100.00
47897;BME280;39629;51.400;5.494;2023-05-10T20:32:12;101229.16;;;11.43;100.00
47897;BME280;39629;51.400;5.494;2023-05-10T20:37:14;101236.22;;;11.44;100.00
47897;BME280;39629;51.400;5.494;2023-05-10T20:42:16;101234.44;;;11.40;100.00
47897;BME280;39629;51.400;5.494;2023-05-10T20:47:19;101231.81;;;11.41;100.00
47897;BME280;39629;51.400;5.494;2023-05-10T20:52:22;101250.28;;;11.37;100.00
47897;BME280;39629;51.400;5.494;2023-05-10T20:57:24;101251.13;;;11.34;100.00
47897;BME280;39629;51.400;5.494;2023-05-10T21:02:27;101248.47;;;11.30;100.00
47897;BME280;39629;51.400;5.494;2023-05-10T21:07:28;101244.09;;;11.36;100.00
47897;BME280;39629;51.400;5.494;2023-05-10T21:12:32;101246.75;;;11.32;100.00
47897;BME280;39629;51.400;5.494;2023-05-10T21:17:35;101252.88;;;11.29;100.00
47897;BME280;39629;51.400;5.494;2023-05-10T21:22:36;101252.00;;;11.22;100.00
47897;BME280;39629;51.400;5.494;2023-05-10T21:27:38;101252.00;;;11.21;100.00
47897;BME280;39629;51.400;5.494;2023-05-10T21:32:40;101256.41;;;11.19;100.00
47897;BME280;39629;51.400;5.494;2023-05-10T21:37:42;101259.00;;;11.17;100.00
47897;BME280;39629;51.400;5.494;2023-05-10T21:42:44;101259.00;;;11.17;100.00
47897;BME280;39629;51.400;5.494;2023-05-10T21:47:49;101255.50;;;11.12;100.00
47897;BME280;39629;51.400;5.494;2023-05-10T21:52:51;101249.34;;;11.10;100.00
47897;BME280;39629;51.400;5.494;2023-05-10T21:57:53;101257.25;;;11.13;100.00
47897;BME280;39629;51.400;5.494;2023-05-10T22:02:56;101259.00;;;11.17;100.00
47897;BME280;39629;51.400;5.494;2023-05-10T22:07:57;101257.28;;;11.16;100.00
47897;BME280;39629;51.400;5.494;2023-05-10T22:12:59;101258.13;;;11.17;100.00
47897;BME280;39629;51.400;5.494;2023-05-10T22:18:02;101253.72;;;11.17;100.00
47897;BME280;39629;51.400;5.494;2023-05-10T22:23:03;101255.50;;;11.20;100.00
47897;BME280;39629;51.400;5.494;2023-05-10T22:28:05;101258.16;;;11.24;100.00
47897;BME280;39629;51.400;5.494;2023-05-10T22:33:09;101256.41;;;11.22;100.00
47897;BME280;39629;51.400;5.494;2023-05-10T22:38:10;101253.75;;;11.22;100.00
47897;BME280;39629;51.400;5.494;2023-05-10T22:43:12;101255.50;;;11.14;100.00
47897;BME280;39629;51.400;5.494;2023-05-10T22:48:15;101257.28;;;11.16;100.00
47897;BME280;39629;51.400;5.494;2023-05-10T22:53:16;101260.78;;;11.18;100.00
47897;BME280;39629;51.400;5.494;2023-05-10T22:58:18;101259.91;;;11.16;100.00
47897;BME280;39629;51.400;5.494;2023-05-10T23:03:21;101262.53;;;11.16;100.00
47897;BME280;39629;51.400;5.494;2023-05-10T23:08:22;101262.53;;;11.19;100.00
47897;BME280;39629;51.400;5.494;2023-05-10T23:13:24;101270.44;;;11.22;100.00
47897;BME280;39629;51.400;5.494;2023-05-10T23:18:27;101266.03;;;11.21;100.00
47897;BME280;39629;51.400;5.494;2023-05-10T23:23:28;101271.31;;;11.21;100.00
47897;BME280;39629;51.400;5.494;2023-05-10T23:28:31;101275.69;;;11.24;100.00
47897;BME280;39629;51.400;5.494;2023-05-10T23:33:34;101275.72;;;11.21;100.00
47897;BME280;39629;51.400;5.494;2023-05-10T23:38:36;101268.66;;;11.21;100.00
47897;BME280;39629;51.400;5.494;2023-05-10T23:43:38;101263.41;;;11.20;100.00
47897;BME280;39629;51.400;5.494;2023-05-10T23:48:41;101259.91;;;11.19;100.00
47897;BME280;39629;51.400;5.494;2023-05-10T23:53:43;101259.03;;;11.23;100.00
47897;BME280;39629;51.400;5.494;2023-05-10T23:58:44;101264.31;;;11.20;100.00
